Portada
METAR-TAF:

METAR-TAF

Aeroports :

Kangiqsujuaq, Quebec, Canadà

latitud: 61-35N, longitud: 071-56W, altitud: 151 m

Observació

L'informe es va fer fa 1 hora i 17 minuts, a les 17:00 UTC
Vent calma
Temperatura -23°C
Humitat 58%
Pressió 1026 hPa
Visibilitat: 24.1 km
Cel clar

METAR: CYKG 271700Z 00000KT 15SM SKC M23/M29 A3031 RMK SLP288

Hora: 13:17 (18:17 UTC)

Pronòstic

L'informe es va fer fa 3 hores i 39 minuts, a les 14:38 UTC
Pronòstic vàlid del 27 a les 15 UTC al 27 a les 22 UTC
Vent 8 kt del Oest/Nord-Oest
Visibilitat: 10 km
Escasses núvols a una alçada de 3000 ft
Escasses núvols a una alçada de 25000 ft

TAF: CYKG 271438Z 2715/2722 30008KT P6SM FEW030 FEW250 RMK NXT FCST WILL BE ISSUED AT 281445Z

Observacions i pronòstics meteorològics de més de 4000 aeroports (METAR i TAF).

Les estacions disponibles són els punts grocs i vermells al mapa.

Posi el ratolí al punt desitjat per veure el nom de l'estació.

Feu clic per veure les observacions i els pronòstics meteorològics.

Per canviar el mapa: feu clic els botons verds amb una creu de color negre per apropar; al botó verd amb un guió per allunyar la imatge; o en les fletxes verdes per a mapes adjacents.


METAR-TAF: